Página principal
METAR-TAF:

METAR-TAF

Aeroportos :

Aeroporto Internacional do Bahrain

Bahrein, Bahrein

latitude: 26-16N, longitude: 050-39E, altura: 2 m

Observação actual do tempo

O boletim foi feito há 20 minutos, às 08:30 UTC
Vento 19 kt de noroeste
Temperatura 17°C
Humidade 45%
Pressão 1022 hPa
Visibilidade: 9000 m
Nuvens dispersasa uma altura de 3000 ft

METAR: OBBI 190830Z 32019KT 9000 SCT030 17/05 Q1022 NOSIG

Hora: 11:50 (08:50 UTC)

Previsão

O boletim foi feito há 3 horas e 50 minutos, às 05:00 UTC
Previsão válida de 19 às 06 UTC a 20 às 12 UTC
Vento 17 kt de nor-noroeste com rajadas de 27 kt
Visibilidade: 8000 m
Nuvens dispersasa uma altura de 2500 ft

TAF: OBBI 190500Z 1906/2012 33017G27KT 8000 SCT025

Observações e previsões do tempo de mais de 4000 aeroportos (mensagens METAR e TAF).

As estações disponíveis são os pontos amarelos e vermelhos sobre o mapa.

Mova o rato sobre o mapa para ver o nome da estação.

Depois clique no ponto para visualizar as observações e previsões meteorológicas.

Para alterar o mapa : clique nos botões verdes com uma cruz preta para aumentar o zoom; no botão verde com uma pitada de zoom; ou nas setas verdes para mapas adjacentes.


METAR-TAF: